sensor_id;sensor_type;location;lat;lon;timestamp;temperature;humidity
52611;DHT22;38727;40.130;18.292;2024-03-23T00:53:40;12.50;79.10
52611;DHT22;38727;40.130;18.292;2024-03-23T01:05:05;12.60;80.10
52611;DHT22;38727;40.130;18.292;2024-03-23T01:12:38;12.60;80.80
52611;DHT22;38727;40.130;18.292;2024-03-23T01:16:19;12.60;81.00
52611;DHT22;38727;40.130;18.292;2024-03-23T01:23:47;12.70;81.50
52611;DHT22;38727;40.130;18.292;2024-03-23T01:52:58;12.90;82.60
52611;DHT22;38727;40.130;18.292;2024-03-23T02:05:04;13.00;83.00
52611;DHT22;38727;40.130;18.292;2024-03-23T02:12:13;13.20;83.10
52611;DHT22;38727;40.130;18.292;2024-03-23T02:40:35;12.80;83.70
52611;DHT22;38727;40.130;18.292;2024-03-23T05:13:25;12.30;82.30
52611;DHT22;38727;40.130;18.292;2024-03-23T05:17:50;12.30;82.10
52611;DHT22;38727;40.130;18.292;2024-03-23T05:21:18;12.20;82.00
52611;DHT22;38727;40.130;18.292;2024-03-23T05:28:57;12.30;82.10
52611;DHT22;38727;40.130;18.292;2024-03-23T05:36:17;12.40;81.90
52611;DHT22;38727;40.130;18.292;2024-03-23T05:39:33;12.40;81.90
52611;DHT22;38727;40.130;18.292;2024-03-23T06:32:49;14.00;80.60
52611;DHT22;38727;40.130;18.292;2024-03-23T06:36:30;13.90;80.50
52611;DHT22;38727;40.130;18.292;2024-03-23T07:39:28;16.90;79.00
52611;DHT22;38727;40.130;18.292;2024-03-23T08:01:55;17.90;75.20
52611;DHT22;38727;40.130;18.292;2024-03-23T08:06:08;18.10;74.10
52611;DHT22;38727;40.130;18.292;2024-03-23T08:10:06;18.30;72.50
52611;DHT22;38727;40.130;18.292;2024-03-23T08:14:00;18.40;71.70
52611;DHT22;38727;40.130;18.292;2024-03-23T08:21:50;18.50;69.20
52611;DHT22;38727;40.130;18.292;2024-03-23T08:36:13;18.70;67.80
52611;DHT22;38727;40.130;18.292;2024-03-23T08:43:32;19.10;64.10
52611;DHT22;38727;40.130;18.292;2024-03-23T08:48:01;19.30;61.60
52611;DHT22;38727;40.130;18.292;2024-03-23T08:52:03;19.50;60.80
52611;DHT22;38727;40.130;18.292;2024-03-23T09:27:14;20.80;52.30
52611;DHT22;38727;40.130;18.292;2024-03-23T10:48:43;24.40;44.30
52611;DHT22;38727;40.130;18.292;2024-03-23T10:52:09;24.00;45.40
52611;DHT22;38727;40.130;18.292;2024-03-23T10:55:37;23.50;45.90
52611;DHT22;38727;40.130;18.292;2024-03-23T11:02:07;22.50;47.80
52611;DHT22;38727;40.130;18.292;2024-03-23T11:05:46;22.10;49.10
52611;DHT22;38727;40.130;18.292;2024-03-23T11:08:33;21.70;49.50
52611;DHT22;38727;40.130;18.292;2024-03-23T11:15:42;20.90;50.90
52611;DHT22;38727;40.130;18.292;2024-03-23T11:18:51;20.90;51.40
52611;DHT22;38727;40.130;18.292;2024-03-23T11:42:40;21.40;49.40
52611;DHT22;38727;40.130;18.292;2024-03-23T11:46:27;20.80;50.90
52611;DHT22;38727;40.130;18.292;2024-03-23T11:53:32;20.10;53.20
52611;DHT22;38727;40.130;18.292;2024-03-23T12:00:52;19.30;58.50
52611;DHT22;38727;40.130;18.292;2024-03-23T12:03:32;19.10;58.00
52611;DHT22;38727;40.130;18.292;2024-03-23T12:10:02;18.80;60.40
52611;DHT22;38727;40.130;18.292;2024-03-23T12:19:08;18.30;65.70
52611;DHT22;38727;40.130;18.292;2024-03-23T12:26:24;18.00;65.70
52611;DHT22;38727;40.130;18.292;2024-03-23T12:29:48;18.00;65.00
52611;DHT22;38727;40.130;18.292;2024-03-23T12:36:36;18.20;65.80
52611;DHT22;38727;40.130;18.292;2024-03-23T12:43:08;18.30;66.20
52611;DHT22;38727;40.130;18.292;2024-03-23T12:45:38;18.40;66.40
52611;DHT22;38727;40.130;18.292;2024-03-23T12:49:06;18.50;66.30
52611;DHT22;38727;40.130;18.292;2024-03-23T12:52:37;18.60;65.30
52611;DHT22;38727;40.130;18.292;2024-03-23T12:55:47;18.60;65.60
52611;DHT22;38727;40.130;18.292;2024-03-23T12:58:49;18.40;66.20
52611;DHT22;38727;40.130;18.292;2024-03-23T13:04:54;18.30;67.50
52611;DHT22;38727;40.130;18.292;2024-03-23T13:08:31;18.30;67.20
52611;DHT22;38727;40.130;18.292;2024-03-23T13:11:34;18.30;66.70
52611;DHT22;38727;40.130;18.292;2024-03-23T13:14:42;18.30;66.50
52611;DHT22;38727;40.130;18.292;2024-03-23T13:20:54;18.40;66.90
52611;DHT22;38727;40.130;18.292;2024-03-23T13:23:25;18.60;64.90
52611;DHT22;38727;40.130;18.292;2024-03-23T13:25:56;18.80;64.20
52611;DHT22;38727;40.130;18.292;2024-03-23T13:28:26;18.90;62.40
52611;DHT22;38727;40.130;18.292;2024-03-23T13:30:54;19.00;60.70
52611;DHT22;38727;40.130;18.292;2024-03-23T13:33:24;19.00;60.60
52611;DHT22;38727;40.130;18.292;2024-03-23T13:35:53;19.20;58.90
52611;DHT22;38727;40.130;18.292;2024-03-23T13:38:23;19.30;57.50
52611;DHT22;38727;40.130;18.292;2024-03-23T13:40:52;19.30;56.10
52611;DHT22;38727;40.130;18.292;2024-03-23T13:43:27;19.40;55.70
52611;DHT22;38727;40.130;18.292;2024-03-23T13:45:57;19.70;54.90
52611;DHT22;38727;40.130;18.292;2024-03-23T13:48:27;19.80;53.50
52611;DHT22;38727;40.130;18.292;2024-03-23T13:51:00;20.00;53.50
52611;DHT22;38727;40.130;18.292;2024-03-23T13:53:31;20.30;53.90
52611;DHT22;38727;40.130;18.292;2024-03-23T13:56:00;20.90;52.50
52611;DHT22;38727;40.130;18.292;2024-03-23T13:58:32;21.30;50.50
52611;DHT22;38727;40.130;18.292;2024-03-23T14:01:00;21.40;49.30
52611;DHT22;38727;40.130;18.292;2024-03-23T14:03:30;21.60;48.90
52611;DHT22;38727;40.130;18.292;2024-03-23T14:05:59;21.80;47.70
52611;DHT22;38727;40.130;18.292;2024-03-23T14:08:31;22.10;48.30
52611;DHT22;38727;40.130;18.292;2024-03-23T14:11:02;22.50;45.70
52611;DHT22;38727;40.130;18.292;2024-03-23T14:13:33;22.80;45.10
52611;DHT22;38727;40.130;18.292;2024-03-23T14:16:01;22.80;44.80
52611;DHT22;38727;40.130;18.292;2024-03-23T14:18:32;22.80;45.00
52611;DHT22;38727;40.130;18.292;2024-03-23T14:21:01;22.60;44.90
52611;DHT22;38727;40.130;18.292;2024-03-23T14:23:31;22.40;44.50
52611;DHT22;38727;40.130;18.292;2024-03-23T14:26:00;22.50;45.50
52611;DHT22;38727;40.130;18.292;2024-03-23T14:28:30;22.90;43.50
52611;DHT22;38727;40.130;18.292;2024-03-23T14:30:59;23.40;42.90
52611;DHT22;38727;40.130;18.292;2024-03-23T14:33:29;24.20;41.10
52611;DHT22;38727;40.130;18.292;2024-03-23T14:35:57;24.80;39.80
52611;DHT22;38727;40.130;18.292;2024-03-23T14:38:26;25.30;38.10
52611;DHT22;38727;40.130;18.292;2024-03-23T14:40:58;25.80;36.70
52611;DHT22;38727;40.130;18.292;2024-03-23T14:43:33;26.00;36.50
52611;DHT22;38727;40.130;18.292;2024-03-23T14:46:18;26.10;35.80
52611;DHT22;38727;40.130;18.292;2024-03-23T14:48:47;26.30;35.30
52611;DHT22;38727;40.130;18.292;2024-03-23T14:51:15;26.30;35.30
52611;DHT22;38727;40.130;18.292;2024-03-23T14:53:46;26.20;35.20
52611;DHT22;38727;40.130;18.292;2024-03-23T14:56:14;26.20;34.20
52611;DHT22;38727;40.130;18.292;2024-03-23T14:58:45;26.30;35.00
52611;DHT22;38727;40.130;18.292;2024-03-23T15:01:14;26.50;35.20
52611;DHT22;38727;40.130;18.292;2024-03-23T15:03:45;26.50;34.60
52611;DHT22;38727;40.130;18.292;2024-03-23T15:06:14;26.60;34.80
52611;DHT22;38727;40.130;18.292;2024-03-23T15:08:43;26.50;35.10
52611;DHT22;38727;40.130;18.292;2024-03-23T15:11:10;26.50;35.50
52611;DHT22;38727;40.130;18.292;2024-03-23T15:13:39;26.60;35.20
52611;DHT22;38727;40.130;18.292;2024-03-23T15:16:07;26.70;35.10
52611;DHT22;38727;40.130;18.292;2024-03-23T15:18:38;26.80;34.50
52611;DHT22;38727;40.130;18.292;2024-03-23T15:21:08;27.10;34.00
52611;DHT22;38727;40.130;18.292;2024-03-23T15:23:38;27.30;33.20
52611;DHT22;38727;40.130;18.292;2024-03-23T15:26:06;27.20;33.80
52611;DHT22;38727;40.130;18.292;2024-03-23T15:28:36;27.30;34.10
52611;DHT22;38727;40.130;18.292;2024-03-23T15:31:09;27.50;34.10
52611;DHT22;38727;40.130;18.292;2024-03-23T15:33:38;27.70;33.70
52611;DHT22;38727;40.130;18.292;2024-03-23T15:36:08;27.90;33.70
52611;DHT22;38727;40.130;18.292;2024-03-23T15:38:38;28.50;33.30
52611;DHT22;38727;40.130;18.292;2024-03-23T15:41:09;29.30;32.40
52611;DHT22;38727;40.130;18.292;2024-03-23T15:43:39;30.10;31.50
52611;DHT22;38727;40.130;18.292;2024-03-23T15:46:06;30.90;29.80
52611;DHT22;38727;40.130;18.292;2024-03-23T15:48:38;31.70;29.50
52611;DHT22;38727;40.130;18.292;2024-03-23T15:51:08;32.20;29.20
52611;DHT22;38727;40.130;18.292;2024-03-23T15:53:39;32.90;28.20
52611;DHT22;38727;40.130;18.292;2024-03-23T15:56:07;33.70;27.60
52611;DHT22;38727;40.130;18.292;2024-03-23T15:58:38;34.10;26.90
52611;DHT22;38727;40.130;18.292;2024-03-23T16:01:07;34.60;26.50
52611;DHT22;38727;40.130;18.292;2024-03-23T16:03:38;34.90;26.60
52611;DHT22;38727;40.130;18.292;2024-03-23T16:06:08;35.30;26.20
52611;DHT22;38727;40.130;18.292;2024-03-23T16:08:37;35.60;26.10
52611;DHT22;38727;40.130;18.292;2024-03-23T16:11:07;35.80;25.70
52611;DHT22;38727;40.130;18.292;2024-03-23T16:13:36;36.00;25.50
52611;DHT22;38727;40.130;18.292;2024-03-23T16:16:04;36.20;25.50
52611;DHT22;38727;40.130;18.292;2024-03-23T16:18:35;36.30;25.00
52611;DHT22;38727;40.130;18.292;2024-03-23T16:21:06;36.30;24.70
52611;DHT22;38727;40.130;18.292;2024-03-23T16:23:37;36.20;24.50
52611;DHT22;38727;40.130;18.292;2024-03-23T16:26:05;36.00;24.80
52611;DHT22;38727;40.130;18.292;2024-03-23T16:28:35;35.70;25.00
52611;DHT22;38727;40.130;18.292;2024-03-23T16:31:05;35.20;25.60
52611;DHT22;38727;40.130;18.292;2024-03-23T16:33:35;34.80;25.70
52611;DHT22;38727;40.130;18.292;2024-03-23T16:36:05;34.20;26.40
52611;DHT22;38727;40.130;18.292;2024-03-23T16:38:37;33.40;27.10
52611;DHT22;38727;40.130;18.292;2024-03-23T16:41:06;32.80;27.80
52611;DHT22;38727;40.130;18.292;2024-03-23T16:43:36;32.30;28.50
52611;DHT22;38727;40.130;18.292;2024-03-23T16:46:09;31.50;29.50
52611;DHT22;38727;40.130;18.292;2024-03-23T16:48:39;30.70;30.50
52611;DHT22;38727;40.130;18.292;2024-03-23T16:51:08;29.80;31.60
52611;DHT22;38727;40.130;18.292;2024-03-23T16:53:40;28.40;33.40
52611;DHT22;38727;40.130;18.292;2024-03-23T16:56:09;27.00;35.60
52611;DHT22;38727;40.130;18.292;2024-03-23T16:58:39;25.60;37.70
52611;DHT22;38727;40.130;18.292;2024-03-23T17:01:09;24.50;39.80
52611;DHT22;38727;40.130;18.292;2024-03-23T17:03:49;23.60;41.60
52611;DHT22;38727;40.130;18.292;2024-03-23T17:06:19;22.90;43.10
52611;DHT22;38727;40.130;18.292;2024-03-23T17:08:52;22.30;44.30
52611;DHT22;38727;40.130;18.292;2024-03-23T17:11:20;21.80;45.60
52611;DHT22;38727;40.130;18.292;2024-03-23T17:13:50;21.30;46.60
52611;DHT22;38727;40.130;18.292;2024-03-23T17:16:21;21.00;47.50
52611;DHT22;38727;40.130;18.292;2024-03-23T17:18:50;20.80;48.20
52611;DHT22;38727;40.130;18.292;2024-03-23T17:21:19;20.40;48.90
52611;DHT22;38727;40.130;18.292;2024-03-23T17:23:48;20.30;49.70
52611;DHT22;38727;40.130;18.292;2024-03-23T17:26:17;20.00;50.40
52611;DHT22;38727;40.130;18.292;2024-03-23T17:28:49;19.70;51.30
52611;DHT22;38727;40.130;18.292;2024-03-23T17:31:18;19.40;51.90
52611;DHT22;38727;40.130;18.292;2024-03-23T17:33:49;19.20;52.50
52611;DHT22;38727;40.130;18.292;2024-03-23T17:36:18;19.10;53.10
52611;DHT22;38727;40.130;18.292;2024-03-23T17:38:54;18.80;53.70
52611;DHT22;38727;40.130;18.292;2024-03-23T17:41:25;18.80;54.20
52611;DHT22;38727;40.130;18.292;2024-03-23T17:43:55;18.60;54.60
52611;DHT22;38727;40.130;18.292;2024-03-23T17:46:24;18.50;54.90
52611;DHT22;38727;40.130;18.292;2024-03-23T17:48:53;18.50;55.10
52611;DHT22;38727;40.130;18.292;2024-03-23T17:51:22;18.40;55.40
52611;DHT22;38727;40.130;18.292;2024-03-23T17:53:52;18.30;55.70
52611;DHT22;38727;40.130;18.292;2024-03-23T17:56:21;18.10;56.20
52611;DHT22;38727;40.130;18.292;2024-03-23T17:58:52;18.10;56.50
52611;DHT22;38727;40.130;18.292;2024-03-23T18:01:20;17.90;56.90
52611;DHT22;38727;40.130;18.292;2024-03-23T18:03:51;17.80;57.60
52611;DHT22;38727;40.130;18.292;2024-03-23T18:06:19;17.80;58.00
52611;DHT22;38727;40.130;18.292;2024-03-23T18:08:50;17.70;58.40
52611;DHT22;38727;40.130;18.292;2024-03-23T18:11:18;17.60;59.00
52611;DHT22;38727;40.130;18.292;2024-03-23T18:13:47;17.60;59.40
52611;DHT22;38727;40.130;18.292;2024-03-23T18:16:18;17.60;59.70
52611;DHT22;38727;40.130;18.292;2024-03-23T18:18:48;17.50;60.40
52611;DHT22;38727;40.130;18.292;2024-03-23T18:21:15;17.50;60.80
52611;DHT22;38727;40.130;18.292;2024-03-23T18:23:46;17.40;61.10
52611;DHT22;38727;40.130;18.292;2024-03-23T18:26:15;17.40;61.50
52611;DHT22;38727;40.130;18.292;2024-03-23T18:28:48;17.30;62.00
52611;DHT22;38727;40.130;18.292;2024-03-23T18:31:19;17.10;62.60
52611;DHT22;38727;40.130;18.292;2024-03-23T18:33:50;17.00;63.20
52611;DHT22;38727;40.130;18.292;2024-03-23T18:36:19;16.90;63.80
52611;DHT22;38727;40.130;18.292;2024-03-23T18:38:48;16.80;64.30
52611;DHT22;38727;40.130;18.292;2024-03-23T18:41:16;16.80;64.50
52611;DHT22;38727;40.130;18.292;2024-03-23T18:43:49;16.80;64.70
52611;DHT22;38727;40.130;18.292;2024-03-23T18:46:18;16.70;64.90
52611;DHT22;38727;40.130;18.292;2024-03-23T18:48:50;16.60;65.10
52611;DHT22;38727;40.130;18.292;2024-03-23T18:51:18;16.50;65.40
52611;DHT22;38727;40.130;18.292;2024-03-23T18:53:48;16.40;65.60
52611;DHT22;38727;40.130;18.292;2024-03-23T18:56:16;16.30;65.90
52611;DHT22;38727;40.130;18.292;2024-03-23T18:58:46;16.20;66.20
52611;DHT22;38727;40.130;18.292;2024-03-23T19:01:16;16.10;66.40
52611;DHT22;38727;40.130;18.292;2024-03-23T19:03:49;16.10;66.70
52611;DHT22;38727;40.130;18.292;2024-03-23T19:06:17;16.10;66.90
52611;DHT22;38727;40.130;18.292;2024-03-23T19:08:46;16.10;67.00
52611;DHT22;38727;40.130;18.292;2024-03-23T19:11:14;16.00;67.10
52611;DHT22;38727;40.130;18.292;2024-03-23T19:13:44;16.00;67.50
52611;DHT22;38727;40.130;18.292;2024-03-23T19:16:15;16.00;67.40
52611;DHT22;38727;40.130;18.292;2024-03-23T19:18:44;16.00;67.70
52611;DHT22;38727;40.130;18.292;2024-03-23T19:21:15;15.90;67.60
52611;DHT22;38727;40.130;18.292;2024-03-23T19:23:45;15.90;67.60
52611;DHT22;38727;40.130;18.292;2024-03-23T19:26:13;15.80;67.70
52611;DHT22;38727;40.130;18.292;2024-03-23T19:28:43;15.80;67.80
52611;DHT22;38727;40.130;18.292;2024-03-23T19:31:15;15.70;68.00
52611;DHT22;38727;40.130;18.292;2024-03-23T19:33:45;15.60;68.40
52611;DHT22;38727;40.130;18.292;2024-03-23T19:36:15;15.60;68.60
52611;DHT22;38727;40.130;18.292;2024-03-23T19:38:45;15.50;68.80
52611;DHT22;38727;40.130;18.292;2024-03-23T19:41:13;15.50;68.90
52611;DHT22;38727;40.130;18.292;2024-03-23T19:43:45;15.40;69.10
52611;DHT22;38727;40.130;18.292;2024-03-23T19:46:13;15.30;69.50
52611;DHT22;38727;40.130;18.292;2024-03-23T19:48:44;15.40;69.60
52611;DHT22;38727;40.130;18.292;2024-03-23T19:51:15;15.40;69.80
52611;DHT22;38727;40.130;18.292;2024-03-23T19:53:44;15.50;69.80
52611;DHT22;38727;40.130;18.292;2024-03-23T19:56:12;15.50;69.70
52611;DHT22;38727;40.130;18.292;2024-03-23T19:58:43;15.50;69.70
52611;DHT22;38727;40.130;18.292;2024-03-23T20:01:14;15.40;69.90
52611;DHT22;38727;40.130;18.292;2024-03-23T20:03:45;15.30;70.20
52611;DHT22;38727;40.130;18.292;2024-03-23T20:06:15;15.30;70.50
52611;DHT22;38727;40.130;18.292;2024-03-23T20:08:45;15.30;70.70
52611;DHT22;38727;40.130;18.292;2024-03-23T20:11:12;15.20;70.80
52611;DHT22;38727;40.130;18.292;2024-03-23T20:13:41;15.10;70.90
52611;DHT22;38727;40.130;18.292;2024-03-23T20:16:09;15.10;71.10
52611;DHT22;38727;40.130;18.292;2024-03-23T20:18:39;15.10;71.30
52611;DHT22;38727;40.130;18.292;2024-03-23T20:21:07;15.10;71.40
52611;DHT22;38727;40.130;18.292;2024-03-23T20:23:38;15.10;71.50
52611;DHT22;38727;40.130;18.292;2024-03-23T20:26:09;15.10;71.70
52611;DHT22;38727;40.130;18.292;2024-03-23T20:28:39;15.10;71.90
52611;DHT22;38727;40.130;18.292;2024-03-23T20:31:08;15.10;72.10
52611;DHT22;38727;40.130;18.292;2024-03-23T20:33:37;15.10;72.40
52611;DHT22;38727;40.130;18.292;2024-03-23T20:36:05;15.20;72.40
52611;DHT22;38727;40.130;18.292;2024-03-23T20:38:38;15.10;72.60
52611;DHT22;38727;40.130;18.292;2024-03-23T20:41:06;15.20;72.60
52611;DHT22;38727;40.130;18.292;2024-03-23T20:43:36;15.20;72.70
52611;DHT22;38727;40.130;18.292;2024-03-23T20:46:08;15.10;72.80
52611;DHT22;38727;40.130;18.292;2024-03-23T20:48:39;15.10;72.90
52611;DHT22;38727;40.130;18.292;2024-03-23T20:51:10;15.10;73.10
52611;DHT22;38727;40.130;18.292;2024-03-23T20:53:41;15.10;73.40
52611;DHT22;38727;40.130;18.292;2024-03-23T20:56:11;15.10;73.70
52611;DHT22;38727;40.130;18.292;2024-03-23T20:58:40;15.10;74.00
52611;DHT22;38727;40.130;18.292;2024-03-23T21:01:10;15.10;74.10
52611;DHT22;38727;40.130;18.292;2024-03-23T21:03:38;15.10;74.20
52611;DHT22;38727;40.130;18.292;2024-03-23T21:06:07;15.10;74.30
52611;DHT22;38727;40.130;18.292;2024-03-23T21:08:36;15.10;74.60
52611;DHT22;38727;40.130;18.292;2024-03-23T21:11:08;15.10;74.60
52611;DHT22;38727;40.130;18.292;2024-03-23T21:13:35;15.10;74.60
52611;DHT22;38727;40.130;18.292;2024-03-23T21:16:05;15.10;74.60
52611;DHT22;38727;40.130;18.292;2024-03-23T21:18:34;15.10;74.60
52611;DHT22;38727;40.130;18.292;2024-03-23T21:21:04;15.10;74.60
52611;DHT22;38727;40.130;18.292;2024-03-23T21:23:34;15.00;74.70
52611;DHT22;38727;40.130;18.292;2024-03-23T21:26:06;15.00;74.80
52611;DHT22;38727;40.130;18.292;2024-03-23T21:28:36;15.00;74.90
52611;DHT22;38727;40.130;18.292;2024-03-23T21:31:06;15.00;74.90
52611;DHT22;38727;40.130;18.292;2024-03-23T21:33:35;15.00;74.80
52611;DHT22;38727;40.130;18.292;2024-03-23T21:36:05;14.90;74.90
52611;DHT22;38727;40.130;18.292;2024-03-23T21:38:33;14.90;75.00
52611;DHT22;38727;40.130;18.292;2024-03-23T21:41:01;14.90;75.00
52611;DHT22;38727;40.130;18.292;2024-03-23T21:43:32;14.80;75.10
52611;DHT22;38727;40.130;18.292;2024-03-23T21:46:03;14.80;75.20
52611;DHT22;38727;40.130;18.292;2024-03-23T21:48:32;14.80;75.20
52611;DHT22;38727;40.130;18.292;2024-03-23T21:51:05;14.80;75.50
52611;DHT22;38727;40.130;18.292;2024-03-23T21:53:33;14.80;75.80
52611;DHT22;38727;40.130;18.292;2024-03-23T21:56:03;14.80;75.90
52611;DHT22;38727;40.130;18.292;2024-03-23T21:58:34;14.80;75.70
52611;DHT22;38727;40.130;18.292;2024-03-23T22:01:04;14.80;75.60
52611;DHT22;38727;40.130;18.292;2024-03-23T22:03:32;14.80;75.70
52611;DHT22;38727;40.130;18.292;2024-03-23T22:06:03;14.80;75.80
52611;DHT22;38727;40.130;18.292;2024-03-23T22:08:31;14.80;75.80
52611;DHT22;38727;40.130;18.292;2024-03-23T22:11:00;14.70;75.80
52611;DHT22;38727;40.130;18.292;2024-03-23T22:13:28;14.70;75.90
52611;DHT22;38727;40.130;18.292;2024-03-23T22:15:59;14.70;76.00
52611;DHT22;38727;40.130;18.292;2024-03-23T22:18:28;14.70;76.00
52611;DHT22;38727;40.130;18.292;2024-03-23T22:20:57;14.70;76.00
52611;DHT22;38727;40.130;18.292;2024-03-23T22:23:25;14.60;76.00
52611;DHT22;38727;40.130;18.292;2024-03-23T22:25:55;14.70;76.10
52611;DHT22;38727;40.130;18.292;2024-03-23T22:28:24;14.60;76.20
52611;DHT22;38727;40.130;18.292;2024-03-23T22:30:54;14.60;76.40
52611;DHT22;38727;40.130;18.292;2024-03-23T22:33:24;14.60;76.50
52611;DHT22;38727;40.130;18.292;2024-03-23T22:35:54;14.60;76.60
52611;DHT22;38727;40.130;18.292;2024-03-23T22:38:22;14.60;76.70
52611;DHT22;38727;40.130;18.292;2024-03-23T22:40:55;14.70;76.80
52611;DHT22;38727;40.130;18.292;2024-03-23T22:43:24;14.70;76.80
52611;DHT22;38727;40.130;18.292;2024-03-23T22:45:54;14.70;76.70
52611;DHT22;38727;40.130;18.292;2024-03-23T22:48:25;14.60;76.80
52611;DHT22;38727;40.130;18.292;2024-03-23T22:50:56;14.70;76.80
52611;DHT22;38727;40.130;18.292;2024-03-23T22:53:25;14.60;76.90
52611;DHT22;38727;40.130;18.292;2024-03-23T22:55:56;14.70;76.90
52611;DHT22;38727;40.130;18.292;2024-03-23T22:58:25;14.70;76.80
52611;DHT22;38727;40.130;18.292;2024-03-23T23:00:55;14.60;77.00
52611;DHT22;38727;40.130;18.292;2024-03-23T23:03:27;14.60;77.10
52611;DHT22;38727;40.130;18.292;2024-03-23T23:06:01;14.60;77.10
52611;DHT22;38727;40.130;18.292;2024-03-23T23:08:31;14.60;77.00
52611;DHT22;38727;40.130;18.292;2024-03-23T23:11:03;14.60;77.10
52611;DHT22;38727;40.130;18.292;2024-03-23T23:13:33;14.60;77.10
52611;DHT22;38727;40.130;18.292;2024-03-23T23:16:04;14.60;77.10
52611;DHT22;38727;40.130;18.292;2024-03-23T23:18:34;14.60;77.20
52611;DHT22;38727;40.130;18.292;2024-03-23T23:21:03;14.60;77.20
52611;DHT22;38727;40.130;18.292;2024-03-23T23:23:31;14.60;77.10
52611;DHT22;38727;40.130;18.292;2024-03-23T23:26:01;14.50;77.10
52611;DHT22;38727;40.130;18.292;2024-03-23T23:28:30;14.50;77.20
52611;DHT22;38727;40.130;18.292;2024-03-23T23:31:01;14.50;77.20
52611;DHT22;38727;40.130;18.292;2024-03-23T23:33:29;14.50;77.10
52611;DHT22;38727;40.130;18.292;2024-03-23T23:36:00;14.40;77.30
52611;DHT22;38727;40.130;18.292;2024-03-23T23:38:28;14.40;77.40
52611;DHT22;38727;40.130;18.292;2024-03-23T23:40:58;14.40;77.40
52611;DHT22;38727;40.130;18.292;2024-03-23T23:43:26;14.40;77.40
52611;DHT22;38727;40.130;18.292;2024-03-23T23:45:58;14.40;77.40
52611;DHT22;38727;40.130;18.292;2024-03-23T23:48:27;14.40;77.50
52611;DHT22;38727;40.130;18.292;2024-03-23T23:50:56;14.40;77.60
52611;DHT22;38727;40.130;18.292;2024-03-23T23:53:27;14.40;77.70
52611;DHT22;38727;40.130;18.292;2024-03-23T23:55:58;14.40;77.50
52611;DHT22;38727;40.130;18.292;2024-03-23T23:58:26;14.40;77.40
